Terminal Aerodrome Forecast
Issued by NWS

Home | Current Version | Previous Version | Text Only | Print | Product List | Glossary On
Versions: 1 2 3 4 5 6 7 8 9 10 11 12 13 14 15 16 17 18 19 20 21 22 23 24
000
FTUS41 KBTV 251120
TAFRUT
TAF
KRUT 251120Z 2512/2612 13008KT P6SM VCSH BKN070 OVC150
     FM251300 14008KT 6SM -SHRA BR OVC035
     FM251500 14008KT 5SM SHRA BR OVC014
     FM251800 14008KT P6SM BKN015 OVC025
     FM252100 13005KT P6SM SCT035
     FM260600 13004KT 3SM BR VCFG SCT001 SCT050=

USA.gov is the U.S. government's official web portal to all federal, state and local government web resources and services.